sensor_id;sensor_type;location;lat;lon;timestamp;pressure;altitude;pressure_sealevel;temperature;humidity
17260;BME280;8746;49.230;9.220;2022-07-10T00:00:13;100604.53;;;17.20;75.54
17260;BME280;8746;49.230;9.220;2022-07-10T00:02:40;100601.97;;;17.03;76.79
17260;BME280;8746;49.230;9.220;2022-07-10T00:05:06;100600.53;;;16.97;77.17
17260;BME280;8746;49.230;9.220;2022-07-10T00:07:32;100598.94;;;16.93;76.97
17260;BME280;8746;49.230;9.220;2022-07-10T00:09:57;100605.47;;;16.87;76.36
17260;BME280;8746;49.230;9.220;2022-07-10T00:12:23;100598.31;;;16.88;77.09
17260;BME280;8746;49.230;9.220;2022-07-10T00:14:48;100595.56;;;16.89;76.43
17260;BME280;8746;49.230;9.220;2022-07-10T00:17:14;100600.84;;;16.91;76.47
17260;BME280;8746;49.230;9.220;2022-07-10T00:19:39;100600.22;;;16.86;76.39
17260;BME280;8746;49.230;9.220;2022-07-10T00:22:05;100599.81;;;16.77;77.19
17260;BME280;8746;49.230;9.220;2022-07-10T00:24:30;100604.25;;;16.77;76.96
17260;BME280;8746;49.230;9.220;2022-07-10T00:26:55;100589.16;;;16.77;77.31
17260;BME280;8746;49.230;9.220;2022-07-10T00:29:21;100601.44;;;16.64;77.67
17260;BME280;8746;49.230;9.220;2022-07-10T00:31:46;100603.78;;;16.53;78.18
17260;BME280;8746;49.230;9.220;2022-07-10T00:34:12;100600.38;;;16.50;78.72
17260;BME280;8746;49.230;9.220;2022-07-10T00:36:38;100595.78;;;16.37;78.47
17260;BME280;8746;49.230;9.220;2022-07-10T00:39:03;100610.47;;;16.28;79.09
17260;BME280;8746;49.230;9.220;2022-07-10T00:41:29;100605.22;;;16.26;79.24
17260;BME280;8746;49.230;9.220;2022-07-10T00:43:59;100602.09;;;16.18;79.68
17260;BME280;8746;49.230;9.220;2022-07-10T00:46:26;100598.59;;;16.00;80.13
17260;BME280;8746;49.230;9.220;2022-07-10T00:48:52;100602.19;;;15.99;80.57
17260;BME280;8746;49.230;9.220;2022-07-10T00:51:20;100606.69;;;15.98;80.49
17260;BME280;8746;49.230;9.220;2022-07-10T00:53:50;100608.53;;;15.96;80.61
17260;BME280;8746;49.230;9.220;2022-07-10T00:56:18;100599.41;;;16.02;79.50
17260;BME280;8746;49.230;9.220;2022-07-10T00:58:45;100595.00;;;16.01;79.55
17260;BME280;8746;49.230;9.220;2022-07-10T01:01:11;100598.97;;;16.10;78.43
17260;BME280;8746;49.230;9.220;2022-07-10T01:03:36;100605.09;;;16.12;78.33
17260;BME280;8746;49.230;9.220;2022-07-10T01:06:03;100596.88;;;15.99;78.36
17260;BME280;8746;49.230;9.220;2022-07-10T01:08:28;100602.69;;;15.90;78.86
17260;BME280;8746;49.230;9.220;2022-07-10T01:10:54;100602.09;;;15.84;78.83
17260;BME280;8746;49.230;9.220;2022-07-10T01:13:20;100591.97;;;15.74;80.63
17260;BME280;8746;49.230;9.220;2022-07-10T01:15:45;100586.47;;;15.59;81.59
17260;BME280;8746;49.230;9.220;2022-07-10T01:18:12;100587.59;;;15.55;81.53
17260;BME280;8746;49.230;9.220;2022-07-10T01:20:37;100584.13;;;15.53;81.35
17260;BME280;8746;49.230;9.220;2022-07-10T01:23:03;100584.53;;;15.45;81.41
17260;BME280;8746;49.230;9.220;2022-07-10T01:25:28;100587.03;;;15.31;81.65
17260;BME280;8746;49.230;9.220;2022-07-10T01:27:53;100589.69;;;15.31;81.56
17260;BME280;8746;49.230;9.220;2022-07-10T01:30:19;100592.16;;;15.34;81.61
17260;BME280;8746;49.230;9.220;2022-07-10T01:32:46;100598.81;;;15.25;81.98
17260;BME280;8746;49.230;9.220;2022-07-10T01:35:11;100593.09;;;15.33;81.28
17260;BME280;8746;49.230;9.220;2022-07-10T01:37:40;100599.78;;;15.42;80.86
17260;BME280;8746;49.230;9.220;2022-07-10T01:40:07;100596.09;;;15.44;80.26
17260;BME280;8746;49.230;9.220;2022-07-10T01:42:32;100600.00;;;15.54;79.17
17260;BME280;8746;49.230;9.220;2022-07-10T01:44:58;100602.53;;;15.58;79.17
17260;BME280;8746;49.230;9.220;2022-07-10T01:47:23;100603.84;;;15.49;78.80
17260;BME280;8746;49.230;9.220;2022-07-10T01:49:53;100609.41;;;15.44;78.92
17260;BME280;8746;49.230;9.220;2022-07-10T01:52:19;100602.09;;;15.30;79.35
17260;BME280;8746;49.230;9.220;2022-07-10T01:54:46;100606.59;;;15.11;79.94
17260;BME280;8746;49.230;9.220;2022-07-10T01:57:11;100605.09;;;15.05;80.30
17260;BME280;8746;49.230;9.220;2022-07-10T01:59:37;100613.59;;;14.94;80.48
17260;BME280;8746;49.230;9.220;2022-07-10T02:02:03;100611.00;;;14.93;80.31
17260;BME280;8746;49.230;9.220;2022-07-10T02:04:28;100611.53;;;14.82;80.50
17260;BME280;8746;49.230;9.220;2022-07-10T02:07:14;100601.22;;;14.74;80.55
17260;BME280;8746;49.230;9.220;2022-07-10T02:09:40;100597.56;;;14.77;80.38
17260;BME280;8746;49.230;9.220;2022-07-10T02:12:09;100598.75;;;14.71;80.45
17260;BME280;8746;49.230;9.220;2022-07-10T02:14:36;100604.84;;;14.73;81.39
17260;BME280;8746;49.230;9.220;2022-07-10T02:17:02;100603.59;;;14.61;82.72
17260;BME280;8746;49.230;9.220;2022-07-10T02:19:27;100608.03;;;14.61;82.45
17260;BME280;8746;49.230;9.220;2022-07-10T02:21:53;100608.31;;;14.54;82.63
17260;BME280;8746;49.230;9.220;2022-07-10T02:24:19;100610.53;;;14.64;82.40
17260;BME280;8746;49.230;9.220;2022-07-10T02:26:44;100612.28;;;14.65;82.27
17260;BME280;8746;49.230;9.220;2022-07-10T02:29:09;100614.06;;;14.64;81.49
17260;BME280;8746;49.230;9.220;2022-07-10T02:31:35;100615.88;;;14.64;81.00
17260;BME280;8746;49.230;9.220;2022-07-10T02:34:08;100616.16;;;14.57;81.73
17260;BME280;8746;49.230;9.220;2022-07-10T02:36:34;100620.22;;;14.46;82.88
17260;BME280;8746;49.230;9.220;2022-07-10T02:39:00;100624.59;;;14.47;82.83
17260;BME280;8746;49.230;9.220;2022-07-10T02:41:26;100626.25;;;14.49;82.85
17260;BME280;8746;49.230;9.220;2022-07-10T02:43:52;100622.78;;;14.47;82.81
17260;BME280;8746;49.230;9.220;2022-07-10T02:46:17;100630.91;;;14.44;82.58
17260;BME280;8746;49.230;9.220;2022-07-10T02:48:43;100620.00;;;14.50;82.02
17260;BME280;8746;49.230;9.220;2022-07-10T02:51:08;100622.16;;;14.42;82.04
17260;BME280;8746;49.230;9.220;2022-07-10T02:53:34;100622.72;;;14.30;82.39
17260;BME280;8746;49.230;9.220;2022-07-10T02:55:59;100624.84;;;14.21;83.42
17260;BME280;8746;49.230;9.220;2022-07-10T02:58:24;100628.44;;;14.20;83.75
17260;BME280;8746;49.230;9.220;2022-07-10T03:00:50;100634.44;;;14.24;83.61
17260;BME280;8746;49.230;9.220;2022-07-10T03:03:16;100636.06;;;14.28;83.05
17260;BME280;8746;49.230;9.220;2022-07-10T03:05:43;100640.19;;;14.34;82.72
17260;BME280;8746;49.230;9.220;2022-07-10T03:08:09;100634.66;;;14.40;82.42
17260;BME280;8746;49.230;9.220;2022-07-10T03:10:35;100634.50;;;14.43;81.89
17260;BME280;8746;49.230;9.220;2022-07-10T03:13:00;100649.28;;;14.49;81.92
17260;BME280;8746;49.230;9.220;2022-07-10T03:15:26;100648.13;;;14.54;81.68
17260;BME280;8746;49.230;9.220;2022-07-10T03:17:52;100651.38;;;14.61;80.76
17260;BME280;8746;49.230;9.220;2022-07-10T03:20:18;100649.88;;;14.55;81.32
17260;BME280;8746;49.230;9.220;2022-07-10T03:22:43;100641.06;;;14.55;81.23
17260;BME280;8746;49.230;9.220;2022-07-10T03:25:09;100638.47;;;14.53;81.05
17260;BME280;8746;49.230;9.220;2022-07-10T03:27:34;100636.66;;;14.54;81.40
17260;BME280;8746;49.230;9.220;2022-07-10T03:30:00;100639.41;;;14.52;81.14
17260;BME280;8746;49.230;9.220;2022-07-10T03:32:25;100643.53;;;14.58;80.71
17260;BME280;8746;49.230;9.220;2022-07-10T03:34:50;100650.03;;;14.52;81.21
17260;BME280;8746;49.230;9.220;2022-07-10T03:37:16;100641.97;;;14.54;81.69
17260;BME280;8746;49.230;9.220;2022-07-10T03:39:41;100650.06;;;14.51;81.12
17260;BME280;8746;49.230;9.220;2022-07-10T03:42:06;100645.91;;;14.45;81.58
17260;BME280;8746;49.230;9.220;2022-07-10T03:44:32;100650.13;;;14.49;81.66
17260;BME280;8746;49.230;9.220;2022-07-10T03:46:57;100647.38;;;14.52;81.68
17260;BME280;8746;49.230;9.220;2022-07-10T03:49:23;100643.88;;;14.71;80.90
17260;BME280;8746;49.230;9.220;2022-07-10T03:51:48;100643.25;;;14.66;80.99
17260;BME280;8746;49.230;9.220;2022-07-10T03:54:14;100635.13;;;14.69;80.36
17260;BME280;8746;49.230;9.220;2022-07-10T03:56:39;100640.59;;;14.64;80.65
17260;BME280;8746;49.230;9.220;2022-07-10T03:59:23;100644.94;;;14.67;80.82
17260;BME280;8746;49.230;9.220;2022-07-10T04:01:49;100653.59;;;14.72;80.29
17260;BME280;8746;49.230;9.220;2022-07-10T04:04:14;100649.28;;;14.69;80.40
17260;BME280;8746;49.230;9.220;2022-07-10T04:06:40;100656.81;;;14.58;80.56
17260;BME280;8746;49.230;9.220;2022-07-10T04:09:05;100660.59;;;14.33;81.88
17260;BME280;8746;49.230;9.220;2022-07-10T04:11:31;100663.41;;;14.30;82.09
17260;BME280;8746;49.230;9.220;2022-07-10T04:13:56;100658.38;;;14.43;82.04
17260;BME280;8746;49.230;9.220;2022-07-10T04:16:22;100655.16;;;14.55;81.41
17260;BME280;8746;49.230;9.220;2022-07-10T04:18:48;100665.94;;;14.52;82.05
17260;BME280;8746;49.230;9.220;2022-07-10T04:21:13;100665.03;;;14.53;82.37
17260;BME280;8746;49.230;9.220;2022-07-10T04:23:39;100669.19;;;14.59;82.12
17260;BME280;8746;49.230;9.220;2022-07-10T04:26:04;100664.78;;;14.58;82.57
17260;BME280;8746;49.230;9.220;2022-07-10T04:28:29;100662.56;;;14.69;82.30
17260;BME280;8746;49.230;9.220;2022-07-10T04:30:55;100655.75;;;14.83;81.59
17260;BME280;8746;49.230;9.220;2022-07-10T04:33:20;100662.91;;;15.00;80.80
17260;BME280;8746;49.230;9.220;2022-07-10T04:35:45;100663.41;;;15.08;80.02
17260;BME280;8746;49.230;9.220;2022-07-10T04:38:11;100660.53;;;15.13;79.21
17260;BME280;8746;49.230;9.220;2022-07-10T04:40:36;100664.41;;;15.25;78.92
17260;BME280;8746;49.230;9.220;2022-07-10T04:43:01;100658.94;;;15.28;78.52
17260;BME280;8746;49.230;9.220;2022-07-10T04:45:27;100665.00;;;15.12;79.15
17260;BME280;8746;49.230;9.220;2022-07-10T04:47:52;100666.91;;;15.28;78.05
17260;BME280;8746;49.230;9.220;2022-07-10T04:50:18;100664.66;;;15.37;77.23
17260;BME280;8746;49.230;9.220;2022-07-10T04:52:43;100658.19;;;15.43;76.46
17260;BME280;8746;49.230;9.220;2022-07-10T04:55:09;100656.56;;;15.58;76.29
17260;BME280;8746;49.230;9.220;2022-07-10T04:57:34;100656.13;;;15.67;75.98
17260;BME280;8746;49.230;9.220;2022-07-10T05:00:01;100663.38;;;15.81;75.51
17260;BME280;8746;49.230;9.220;2022-07-10T05:02:26;100656.88;;;15.69;74.36
17260;BME280;8746;49.230;9.220;2022-07-10T05:04:51;100647.91;;;15.72;74.26
17260;BME280;8746;49.230;9.220;2022-07-10T05:07:17;100656.34;;;15.80;74.57
17260;BME280;8746;49.230;9.220;2022-07-10T05:09:42;100660.44;;;15.88;74.44
17260;BME280;8746;49.230;9.220;2022-07-10T05:12:08;100653.56;;;15.83;73.02
17260;BME280;8746;49.230;9.220;2022-07-10T05:14:33;100662.75;;;15.76;73.64
17260;BME280;8746;49.230;9.220;2022-07-10T05:16:58;100664.16;;;15.66;74.09
17260;BME280;8746;49.230;9.220;2022-07-10T05:19:24;100662.59;;;15.62;73.85
17260;BME280;8746;49.230;9.220;2022-07-10T05:21:49;100656.66;;;15.57;74.42
17260;BME280;8746;49.230;9.220;2022-07-10T05:24:15;100665.03;;;15.66;73.37
17260;BME280;8746;49.230;9.220;2022-07-10T05:26:41;100671.31;;;15.46;73.83
17260;BME280;8746;49.230;9.220;2022-07-10T05:29:06;100678.41;;;15.65;73.09
17260;BME280;8746;49.230;9.220;2022-07-10T05:31:32;100682.31;;;15.75;72.54
17260;BME280;8746;49.230;9.220;2022-07-10T05:33:57;100681.38;;;15.59;72.41
17260;BME280;8746;49.230;9.220;2022-07-10T05:36:22;100680.88;;;15.50;72.81
17260;BME280;8746;49.230;9.220;2022-07-10T05:38:48;100690.06;;;15.62;72.56
17260;BME280;8746;49.230;9.220;2022-07-10T05:41:13;100693.75;;;15.77;72.55
17260;BME280;8746;49.230;9.220;2022-07-10T05:43:39;100689.81;;;15.67;71.74
17260;BME280;8746;49.230;9.220;2022-07-10T05:46:04;100694.06;;;15.71;70.95
17260;BME280;8746;49.230;9.220;2022-07-10T05:48:30;100699.38;;;15.71;70.28
17260;BME280;8746;49.230;9.220;2022-07-10T05:50:56;100698.56;;;15.88;70.39
17260;BME280;8746;49.230;9.220;2022-07-10T05:53:22;100700.03;;;15.94;69.20
17260;BME280;8746;49.230;9.220;2022-07-10T05:55:47;100707.25;;;16.09;67.43
17260;BME280;8746;49.230;9.220;2022-07-10T05:58:16;100698.41;;;16.09;66.42
17260;BME280;8746;49.230;9.220;2022-07-10T06:00:41;100703.66;;;16.10;67.31
17260;BME280;8746;49.230;9.220;2022-07-10T06:03:11;100711.63;;;16.28;66.81
17260;BME280;8746;49.230;9.220;2022-07-10T06:05:37;100715.38;;;16.41;65.60
17260;BME280;8746;49.230;9.220;2022-07-10T06:08:02;100714.75;;;16.36;65.17
17260;BME280;8746;49.230;9.220;2022-07-10T06:10:28;100712.97;;;16.01;66.38
17260;BME280;8746;49.230;9.220;2022-07-10T06:12:53;100709.94;;;15.92;66.56
17260;BME280;8746;49.230;9.220;2022-07-10T06:15:18;100712.50;;;15.74;66.08
17260;BME280;8746;49.230;9.220;2022-07-10T06:17:44;100705.44;;;15.55;67.14
17260;BME280;8746;49.230;9.220;2022-07-10T06:20:10;100714.97;;;15.42;67.18
17260;BME280;8746;49.230;9.220;2022-07-10T06:22:35;100719.63;;;15.37;66.62
17260;BME280;8746;49.230;9.220;2022-07-10T06:25:04;100721.72;;;15.30;67.37
17260;BME280;8746;49.230;9.220;2022-07-10T06:27:30;100709.31;;;15.67;66.20
17260;BME280;8746;49.230;9.220;2022-07-10T06:29:56;100710.22;;;15.85;65.00
17260;BME280;8746;49.230;9.220;2022-07-10T06:32:22;100712.28;;;15.98;63.58
17260;BME280;8746;49.230;9.220;2022-07-10T06:34:49;100707.50;;;16.05;63.54
17260;BME280;8746;49.230;9.220;2022-07-10T06:37:15;100703.56;;;16.12;62.71
17260;BME280;8746;49.230;9.220;2022-07-10T06:39:40;100701.31;;;16.04;60.24
17260;BME280;8746;49.230;9.220;2022-07-10T06:42:06;100715.22;;;16.27;59.44
17260;BME280;8746;49.230;9.220;2022-07-10T06:44:32;100720.88;;;16.38;59.38
17260;BME280;8746;49.230;9.220;2022-07-10T06:46:58;100717.34;;;16.38;59.42
17260;BME280;8746;49.230;9.220;2022-07-10T06:49:43;100714.66;;;16.38;58.37
17260;BME280;8746;49.230;9.220;2022-07-10T06:52:11;100726.50;;;16.32;57.53
17260;BME280;8746;49.230;9.220;2022-07-10T06:54:36;100733.09;;;16.07;58.20
17260;BME280;8746;49.230;9.220;2022-07-10T06:57:02;100719.91;;;15.86;59.54
17260;BME280;8746;49.230;9.220;2022-07-10T06:59:27;100726.03;;;15.89;59.45
17260;BME280;8746;49.230;9.220;2022-07-10T07:01:53;100721.16;;;16.32;58.85
17260;BME280;8746;49.230;9.220;2022-07-10T07:04:19;100726.22;;;16.72;57.50
17260;BME280;8746;49.230;9.220;2022-07-10T07:06:44;100720.63;;;16.94;55.45
17260;BME280;8746;49.230;9.220;2022-07-10T07:09:10;100716.59;;;17.19;55.48
17260;BME280;8746;49.230;9.220;2022-07-10T07:11:36;100715.38;;;17.56;54.47
17260;BME280;8746;49.230;9.220;2022-07-10T07:14:02;100714.25;;;17.44;52.20
17260;BME280;8746;49.230;9.220;2022-07-10T07:16:27;100718.13;;;17.55;53.60
17260;BME280;8746;49.230;9.220;2022-07-10T07:19:04;100718.31;;;17.36;51.69
17260;BME280;8746;49.230;9.220;2022-07-10T07:21:30;100712.38;;;17.14;53.77
17260;BME280;8746;49.230;9.220;2022-07-10T07:24:14;100716.22;;;16.93;54.22
17260;BME280;8746;49.230;9.220;2022-07-10T07:26:40;100716.59;;;17.19;54.83
17260;BME280;8746;49.230;9.220;2022-07-10T07:29:05;100720.38;;;17.14;52.57
17260;BME280;8746;49.230;9.220;2022-07-10T07:31:31;100717.59;;;17.00;50.45
17260;BME280;8746;49.230;9.220;2022-07-10T07:33:57;100720.91;;;16.88;53.34
17260;BME280;8746;49.230;9.220;2022-07-10T07:36:22;100732.31;;;16.74;53.41
17260;BME280;8746;49.230;9.220;2022-07-10T07:38:48;100732.31;;;16.74;53.12
17260;BME280;8746;49.230;9.220;2022-07-10T07:41:13;100730.34;;;17.11;52.46
17260;BME280;8746;49.230;9.220;2022-07-10T07:43:38;100721.41;;;17.60;53.02
17260;BME280;8746;49.230;9.220;2022-07-10T07:46:04;100722.28;;;17.91;52.93
17260;BME280;8746;49.230;9.220;2022-07-10T07:48:29;100728.84;;;18.01;50.99
17260;BME280;8746;49.230;9.220;2022-07-10T07:50:55;100727.91;;;17.86;51.25
17260;BME280;8746;49.230;9.220;2022-07-10T07:53:23;100730.47;;;17.88;50.43
17260;BME280;8746;49.230;9.220;2022-07-10T07:55:48;100735.31;;;17.65;50.27
17260;BME280;8746;49.230;9.220;2022-07-10T07:58:14;100744.03;;;17.53;50.83
17260;BME280;8746;49.230;9.220;2022-07-10T08:00:39;100733.28;;;17.38;49.21
17260;BME280;8746;49.230;9.220;2022-07-10T08:03:04;100734.22;;;17.21;49.34
17260;BME280;8746;49.230;9.220;2022-07-10T08:05:30;100732.31;;;17.07;51.47
17260;BME280;8746;49.230;9.220;2022-07-10T08:07:58;100720.97;;;17.20;51.00
17260;BME280;8746;49.230;9.220;2022-07-10T08:10:25;100726.56;;;17.15;50.92
17260;BME280;8746;49.230;9.220;2022-07-10T08:12:52;100722.72;;;17.21;49.95
17260;BME280;8746;49.230;9.220;2022-07-10T08:15:18;100719.69;;;17.27;50.02
17260;BME280;8746;49.230;9.220;2022-07-10T08:17:47;100721.31;;;17.29;49.25
17260;BME280;8746;49.230;9.220;2022-07-10T08:20:13;100713.66;;;17.23;49.69
17260;BME280;8746;49.230;9.220;2022-07-10T08:22:40;100707.63;;;17.52;49.32
17260;BME280;8746;49.230;9.220;2022-07-10T08:25:06;100710.00;;;17.72;47.52
17260;BME280;8746;49.230;9.220;2022-07-10T08:27:31;100705.66;;;17.55;48.38
17260;BME280;8746;49.230;9.220;2022-07-10T08:29:57;100699.00;;;17.62;47.92
17260;BME280;8746;49.230;9.220;2022-07-10T08:32:22;100708.06;;;18.06;47.24
17260;BME280;8746;49.230;9.220;2022-07-10T08:34:48;100693.41;;;18.14;47.79
17260;BME280;8746;49.230;9.220;2022-07-10T08:37:14;100703.50;;;17.62;48.21
17260;BME280;8746;49.230;9.220;2022-07-10T08:39:39;100703.34;;;17.49;48.69
17260;BME280;8746;49.230;9.220;2022-07-10T08:42:06;100694.94;;;17.71;48.68
17260;BME280;8746;49.230;9.220;2022-07-10T08:44:33;100699.38;;;17.56;48.53
17260;BME280;8746;49.230;9.220;2022-07-10T08:46:59;100696.50;;;17.75;47.97
17260;BME280;8746;49.230;9.220;2022-07-10T08:49:27;100706.75;;;18.14;46.64
17260;BME280;8746;49.230;9.220;2022-07-10T08:52:03;100711.22;;;17.83;46.99
17260;BME280;8746;49.230;9.220;2022-07-10T08:54:29;100707.59;;;18.00;47.96
17260;BME280;8746;49.230;9.220;2022-07-10T08:56:57;100699.22;;;18.20;47.44
17260;BME280;8746;49.230;9.220;2022-07-10T08:59:22;100706.59;;;18.17;46.48
17260;BME280;8746;49.230;9.220;2022-07-10T09:01:48;100703.56;;;17.76;46.33
17260;BME280;8746;49.230;9.220;2022-07-10T09:04:18;100701.41;;;17.67;46.96
17260;BME280;8746;49.230;9.220;2022-07-10T09:06:44;100703.09;;;17.84;46.92
17260;BME280;8746;49.230;9.220;2022-07-10T09:09:09;100709.91;;;17.90;47.12
17260;BME280;8746;49.230;9.220;2022-07-10T09:11:38;100704.97;;;17.98;46.61
17260;BME280;8746;49.230;9.220;2022-07-10T09:14:06;100712.31;;;18.25;47.30
17260;BME280;8746;49.230;9.220;2022-07-10T09:16:38;100700.78;;;18.39;45.58
17260;BME280;8746;49.230;9.220;2022-07-10T09:19:22;100698.78;;;18.57;46.14
17260;BME280;8746;49.230;9.220;2022-07-10T09:21:50;100705.16;;;18.40;45.25
17260;BME280;8746;49.230;9.220;2022-07-10T09:24:16;100707.19;;;18.65;45.44
17260;BME280;8746;49.230;9.220;2022-07-10T09:29:18;100723.63;;;18.73;45.40
17260;BME280;8746;49.230;9.220;2022-07-10T09:32:01;100723.38;;;18.33;45.73
17260;BME280;8746;49.230;9.220;2022-07-10T09:42:27;100718.75;;;18.66;43.93
17260;BME280;8746;49.230;9.220;2022-07-10T09:47:45;100721.53;;;18.50;44.33
17260;BME280;8746;49.230;9.220;2022-07-10T09:50:26;100716.25;;;18.48;43.97
17260;BME280;8746;49.230;9.220;2022-07-10T09:52:56;100717.41;;;18.73;43.24
17260;BME280;8746;49.230;9.220;2022-07-10T09:55:23;100720.09;;;18.58;44.09
17260;BME280;8746;49.230;9.220;2022-07-10T10:00:29;100715.50;;;18.61;43.54
17260;BME280;8746;49.230;9.220;2022-07-10T10:03:00;100706.69;;;18.73;43.65
17260;BME280;8746;49.230;9.220;2022-07-10T10:05:42;100702.31;;;18.43;44.76
17260;BME280;8746;49.230;9.220;2022-07-10T10:08:25;100712.16;;;18.57;45.91
17260;BME280;8746;49.230;9.220;2022-07-10T10:10:53;100702.78;;;18.64;43.75
17260;BME280;8746;49.230;9.220;2022-07-10T10:13:22;100702.03;;;18.48;44.41
17260;BME280;8746;49.230;9.220;2022-07-10T10:15:49;100701.09;;;18.49;43.82
17260;BME280;8746;49.230;9.220;2022-07-10T10:18:25;100704.91;;;18.88;42.83
17260;BME280;8746;49.230;9.220;2022-07-10T10:20:53;100693.72;;;19.10;42.24
17260;BME280;8746;49.230;9.220;2022-07-10T10:23:20;100687.75;;;19.61;40.83
17260;BME280;8746;49.230;9.220;2022-07-10T10:25:47;100692.94;;;19.77;41.76
17260;BME280;8746;49.230;9.220;2022-07-10T10:28:13;100691.88;;;19.80;40.95
17260;BME280;8746;49.230;9.220;2022-07-10T10:30:43;100699.88;;;19.40;41.42
17260;BME280;8746;49.230;9.220;2022-07-10T10:36:01;100694.19;;;19.17;42.39
17260;BME280;8746;49.230;9.220;2022-07-10T10:41:26;100699.66;;;19.01;42.75
17260;BME280;8746;49.230;9.220;2022-07-10T10:46:34;100698.69;;;18.87;43.03
17260;BME280;8746;49.230;9.220;2022-07-10T10:49:07;100707.56;;;19.17;43.53
17260;BME280;8746;49.230;9.220;2022-07-10T10:52:11;100706.94;;;19.41;42.96
17260;BME280;8746;49.230;9.220;2022-07-10T11:00:03;100693.00;;;19.63;41.21
17260;BME280;8746;49.230;9.220;2022-07-10T11:02:34;100693.91;;;20.68;39.80
17260;BME280;8746;49.230;9.220;2022-07-10T11:08:01;100687.69;;;20.80;38.21
17260;BME280;8746;49.230;9.220;2022-07-10T11:10:28;100679.22;;;21.48;36.64
17260;BME280;8746;49.230;9.220;2022-07-10T11:13:02;100677.22;;;21.87;35.36
17260;BME280;8746;49.230;9.220;2022-07-10T11:15:29;100693.56;;;21.36;36.68
17260;BME280;8746;49.230;9.220;2022-07-10T11:18:11;100697.59;;;20.80;37.04
17260;BME280;8746;49.230;9.220;2022-07-10T11:20:40;100697.25;;;20.46;39.50
17260;BME280;8746;49.230;9.220;2022-07-10T11:25:49;100688.78;;;20.26;38.74
17260;BME280;8746;49.230;9.220;2022-07-10T11:28:36;100687.31;;;20.74;37.60
17260;BME280;8746;49.230;9.220;2022-07-10T11:31:04;100688.34;;;20.84;37.95
17260;BME280;8746;49.230;9.220;2022-07-10T11:33:39;100684.91;;;20.30;37.99
17260;BME280;8746;49.230;9.220;2022-07-10T11:36:12;100681.69;;;20.51;38.74
17260;BME280;8746;49.230;9.220;2022-07-10T11:38:39;100682.56;;;20.39;38.81
17260;BME280;8746;49.230;9.220;2022-07-10T11:41:20;100681.03;;;20.09;40.13
17260;BME280;8746;49.230;9.220;2022-07-10T11:43:52;100681.81;;;20.49;37.63
17260;BME280;8746;49.230;9.220;2022-07-10T11:46:23;100679.50;;;22.05;36.24
17260;BME280;8746;49.230;9.220;2022-07-10T11:48:50;100657.31;;;22.94;33.20
17260;BME280;8746;49.230;9.220;2022-07-10T11:51:28;100662.28;;;23.10;33.63
17260;BME280;8746;49.230;9.220;2022-07-10T11:56:27;100670.34;;;22.07;35.45
17260;BME280;8746;49.230;9.220;2022-07-10T11:59:03;100667.53;;;21.49;36.73
17260;BME280;8746;49.230;9.220;2022-07-10T12:01:33;100679.34;;;20.85;37.80
17260;BME280;8746;49.230;9.220;2022-07-10T12:04:04;100681.94;;;20.48;37.95
17260;BME280;8746;49.230;9.220;2022-07-10T12:06:32;100685.34;;;20.24;39.38
17260;BME280;8746;49.230;9.220;2022-07-10T12:09:15;100678.59;;;20.44;39.09
17260;BME280;8746;49.230;9.220;2022-07-10T12:11:42;100685.00;;;20.42;38.80
17260;BME280;8746;49.230;9.220;2022-07-10T12:14:14;100675.38;;;20.26;39.01
17260;BME280;8746;49.230;9.220;2022-07-10T12:16:42;100679.75;;;20.40;39.09
17260;BME280;8746;49.230;9.220;2022-07-10T12:19:11;100677.25;;;21.02;37.46
17260;BME280;8746;49.230;9.220;2022-07-10T12:21:37;100682.78;;;21.49;36.95
17260;BME280;8746;49.230;9.220;2022-07-10T12:24:03;100675.44;;;21.64;36.72
17260;BME280;8746;49.230;9.220;2022-07-10T12:26:37;100672.53;;;21.29;37.03
17260;BME280;8746;49.230;9.220;2022-07-10T12:29:04;100677.63;;;20.84;37.95
17260;BME280;8746;49.230;9.220;2022-07-10T12:31:31;100673.31;;;20.69;38.95
17260;BME280;8746;49.230;9.220;2022-07-10T12:33:59;100677.19;;;20.64;37.83
17260;BME280;8746;49.230;9.220;2022-07-10T12:36:42;100680.63;;;20.66;37.36
17260;BME280;8746;49.230;9.220;2022-07-10T12:39:09;100681.69;;;20.25;37.98
17260;BME280;8746;49.230;9.220;2022-07-10T12:41:34;100679.53;;;20.56;39.13
17260;BME280;8746;49.230;9.220;2022-07-10T12:44:00;100684.63;;;20.48;38.29
17260;BME280;8746;49.230;9.220;2022-07-10T12:46:26;100677.28;;;21.26;36.61
17260;BME280;8746;49.230;9.220;2022-07-10T12:49:11;100670.44;;;21.70;35.30
17260;BME280;8746;49.230;9.220;2022-07-10T12:54:05;100660.38;;;25.02;29.80
17260;BME280;8746;49.230;9.220;2022-07-10T12:56:32;100659.91;;;25.77;28.89
17260;BME280;8746;49.230;9.220;2022-07-10T12:58:59;100649.63;;;26.20;27.57
17260;BME280;8746;49.230;9.220;2022-07-10T13:01:39;100657.09;;;26.74;26.36
17260;BME280;8746;49.230;9.220;2022-07-10T13:04:05;100652.34;;;26.95;25.84
17260;BME280;8746;49.230;9.220;2022-07-10T13:06:32;100651.69;;;27.65;25.18
17260;BME280;8746;49.230;9.220;2022-07-10T13:09:00;100649.44;;;28.23;24.79
17260;BME280;8746;49.230;9.220;2022-07-10T13:11:25;100641.75;;;29.31;23.15
17260;BME280;8746;49.230;9.220;2022-07-10T13:13:52;100659.34;;;28.33;24.14
17260;BME280;8746;49.230;9.220;2022-07-10T13:16:18;100653.69;;;26.71;26.42
17260;BME280;8746;49.230;9.220;2022-07-10T13:18:43;100650.78;;;26.55;26.23
17260;BME280;8746;49.230;9.220;2022-07-10T13:21:09;100652.31;;;28.22;25.01
17260;BME280;8746;49.230;9.220;2022-07-10T13:23:36;100650.94;;;27.99;24.23
17260;BME280;8746;49.230;9.220;2022-07-10T13:26:03;100647.25;;;28.61;23.67
17260;BME280;8746;49.230;9.220;2022-07-10T13:28:29;100642.94;;;27.98;23.41
17260;BME280;8746;49.230;9.220;2022-07-10T13:30:55;100626.06;;;29.08;22.76
17260;BME280;8746;49.230;9.220;2022-07-10T13:33:20;100631.56;;;30.15;22.49
17260;BME280;8746;49.230;9.220;2022-07-10T13:35:46;100636.34;;;29.64;22.42
17260;BME280;8746;49.230;9.220;2022-07-10T13:38:13;100647.41;;;28.86;22.20
17260;BME280;8746;49.230;9.220;2022-07-10T13:40:38;100635.63;;;30.19;21.39